Time;durP1;ratioP1;P1;durP2;ratioP2;P2;SDS_P1;SDS_P2;PMS_P1;PMS_P2;Temp;Humidity;BMP_temperature;BMP_pressure;BME280_temperature;BME280_humidity;BME280_pressure;Samples;Min_cycle;Max_cycle;Signal;HPM_P1;HPM_P2
2021/08/07 00:01:52;;;;;;;12.50;10.95;;;;;;;12.76;75.05;99518.25;128343;1095;22347;-77
2021/08/07 00:04:22;;;;;;;16.40;11.38;;;;;;;12.71;75.11;99506.43;128298;1095;22594;-77
2021/08/07 00:06:51;;;;;;;17.43;11.43;;;;;;;12.68;75.26;99504.19;128571;1095;23202;-77
2021/08/07 00:09:21;;;;;;;20.05;11.85;;;;;;;12.66;75.35;99503.59;128333;1095;22347;-77
2021/08/07 00:11:51;;;;;;;14.15;10.25;;;;;;;12.66;75.63;99510.69;128609;1095;22366;-78
2021/08/07 00:14:20;;;;;;;21.00;12.88;;;;;;;12.66;75.59;99508.89;128333;1095;24248;-77
2021/08/07 00:16:50;;;;;;;13.83;11.40;;;;;;;12.67;75.52;99515.81;128615;1095;22353;-78
2021/08/07 00:19:19;;;;;;;15.45;11.20;;;;;;;12.66;75.50;99508.89;128607;1095;22446;-77
2021/08/07 00:21:49;;;;;;;17.85;11.40;;;;;;;12.65;75.43;99515.19;128575;1095;22343;-77
2021/08/07 00:24:18;;;;;;;18.95;11.40;;;;;;;12.63;75.38;99511.13;128291;1095;22407;-78
2021/08/07 00:26:48;;;;;;;17.10;12.13;;;;;;;12.61;75.69;99495.41;128589;1095;22360;-77
2021/08/07 00:29:17;;;;;;;20.80;11.47;;;;;;;12.57;75.59;99503.98;128579;1095;22352;-77
2021/08/07 00:31:47;;;;;;;12.43;11.07;;;;;;;12.57;75.80;99494.19;128548;1095;24224;-77
2021/08/07 00:34:17;;;;;;;15.60;11.53;;;;;;;12.57;75.68;99498.68;128598;1095;22321;-78
2021/08/07 00:36:48;;;;;;;11.60;10.28;;;;;;;12.55;75.95;99496.22;128530;1094;23132;-78
2021/08/07 00:39:17;;;;;;;17.03;12.28;;;;;;;12.53;75.61;99503.56;128600;1095;24236;-78
2021/08/07 00:41:47;;;;;;;17.40;10.63;;;;;;;12.46;75.70;99508.85;128302;1095;22359;-78
2021/08/07 00:44:18;;;;;;;17.93;11.78;;;;;;;12.37;75.91;99502.09;128259;1095;22365;-78
2021/08/07 00:46:48;;;;;;;16.95;11.10;;;;;;;12.33;75.84;99500.88;128299;1095;22399;-78
2021/08/07 00:49:19;;;;;;;16.40;10.93;;;;;;;12.27;76.09;99493.72;128289;1095;22362;-78
2021/08/07 00:51:51;;;;;;;15.85;10.73;;;;;;;12.22;76.09;99496.95;128600;1095;24520;-78
2021/08/07 00:54:23;;;;;;;14.03;10.13;;;;;;;12.17;76.22;99506.52;128293;1095;22359;-77
2021/08/07 00:56:57;;;;;;;15.45;10.98;;;;;;;12.12;76.29;99506.28;128625;1095;22436;-80
2021/08/07 00:59:26;;;;;;;12.57;10.10;;;;;;;12.11;76.46;99502.83;128654;1093;24495;-78
2021/08/07 01:02:02;;;;;;;12.85;11.05;;;;;;;12.12;76.87;99501.80;128272;1095;24492;-78
2021/08/07 01:05:10;;;;;;;13.25;10.28;;;;;;;12.15;76.81;99504.06;128603;1095;24509;-78
2021/08/07 01:07:55;;;;;;;13.58;10.43;;;;;;;12.16;77.01;99500.42;128681;1095;24492;-77
2021/08/07 01:11:11;;;;;;;15.65;10.43;;;;;;;12.18;76.99;99505.50;128663;1095;22433;-79
2021/08/07 01:13:49;;;;;;;20.90;10.73;;;;;;;12.19;76.83;99502.64;128194;1098;24501;-78
2021/08/07 01:16:44;;;;;;;13.28;9.53;;;;;;;12.19;76.80;99502.64;128271;1098;22356;-78
2021/08/07 01:19:18;;;;;;;12.60;10.15;;;;;;;12.19;76.89;99497.34;128014;1098;22399;-77
2021/08/07 01:22:00;;;;;;;13.83;10.20;;;;;;;12.18;76.57;99494.91;127982;1098;24521;-77
2021/08/07 01:24:50;;;;;;;12.80;9.55;;;;;;;12.16;76.75;99497.77;128045;1098;22379;-77
2021/08/07 01:27:31;;;;;;;13.48;10.23;;;;;;;12.17;76.89;99503.88;128027;1098;24502;-76
2021/08/07 01:30:30;;;;;;;13.08;9.93;;;;;;;12.13;76.66;99502.61;128036;1096;24499;-76
2021/08/07 01:33:00;;;;;;;16.23;9.45;;;;;;;12.13;76.65;99503.45;128250;1098;22374;-77
2021/08/07 01:35:36;;;;;;;10.90;9.18;;;;;;;12.11;76.73;99505.48;128175;1098;24512;-76
2021/08/07 01:38:09;;;;;;;13.30;8.88;;;;;;;12.12;76.74;99501.80;127999;1098;24511;-76
2021/08/07 01:40:45;;;;;;;11.60;9.28;;;;;;;12.11;76.65;99508.13;128160;1098;23000;-75
2021/08/07 01:43:22;;;;;;;14.08;9.35;;;;;;;12.10;76.76;99501.20;127997;1098;24501;-77
2021/08/07 01:45:53;;;;;;;;;;;;;;;12.04;76.59;99504.64;128208;1097;22395;-75
2021/08/07 01:48:38;;;;;;;15.35;9.13;;;;;;;11.97;76.65;99501.16;128506;1095;21335;-76
2021/08/07 01:51:21;;;;;;;11.15;8.13;;;;;;;11.98;76.79;99500.13;128285;1095;24562;-77
2021/08/07 01:53:59;;;;;;;13.85;9.28;;;;;;;12.00;76.94;99495.47;128508;1095;24482;-77
2021/08/07 01:56:34;;;;;;;12.17;9.70;;;;;;;12.04;76.78;99494.05;128534;1095;22459;-77
2021/08/07 01:59:20;;;;;;;11.90;8.63;;;;;;;12.06;76.91;99493.84;128634;1095;23146;-77
2021/08/07 02:01:52;;;;;;;12.40;9.23;;;;;;;12.07;76.98;99495.49;128219;1095;22342;-77
2021/08/07 02:04:40;;;;;;;11.23;9.33;;;;;;;12.11;77.01;99496.72;128571;1095;22309;-77
2021/08/07 02:07:17;;;;;;;12.83;9.10;;;;;;;12.13;76.88;99499.97;128614;1095;22340;-78
2021/08/07 02:09:49;;;;;;;11.28;9.65;;;;;;;12.15;76.77;99496.11;128327;1094;22333;-77
2021/08/07 02:12:19;;;;;;;11.55;8.93;;;;;;;12.11;76.32;99497.53;128356;1095;22879;-76
2021/08/07 02:14:54;;;;;;;12.98;10.98;;;;;;;12.07;76.45;99495.49;128647;1093;22363;-76
2021/08/07 02:17:25;;;;;;;14.30;10.43;;;;;;;12.05;76.42;99505.45;128638;1095;24236;-77
2021/08/07 02:19:56;;;;;;;16.80;11.35;;;;;;;12.04;76.77;99495.88;128591;1095;22361;-77
2021/08/07 02:22:28;;;;;;;15.23;12.40;;;;;;;12.01;76.58;99492.61;128340;1095;22342;-77
2021/08/07 02:24:57;;;;;;;13.30;11.20;;;;;;;11.97;76.48;99496.67;128291;1095;24485;-78
2021/08/07 02:27:36;;;;;;;12.55;10.50;;;;;;;11.89;76.21;99499.47;128305;1095;22340;-77
2021/08/07 02:30:08;;;;;;;13.83;10.98;;;;;;;11.84;76.67;99503.71;128313;1095;22362;-77
2021/08/07 02:32:44;;;;;;;13.00;11.90;;;;;;;11.81;76.84;99496.16;128269;1095;22358;-77
2021/08/07 02:35:14;;;;;;;15.30;13.73;;;;;;;11.80;76.82;99497.19;128568;1095;22660;-77
2021/08/07 02:37:46;;;;;;;15.55;13.93;;;;;;;11.81;76.80;99506.75;128368;1095;22338;-76
2021/08/07 02:40:16;;;;;;;14.35;12.48;;;;;;;11.80;76.92;99511.23;128302;1095;22342;-78
2021/08/07 02:42:52;;;;;;;12.63;9.28;;;;;;;11.78;76.74;99506.11;128268;1095;22329;-76
2021/08/07 02:45:23;;;;;;;12.30;11.00;;;;;;;11.73;76.63;99505.09;128636;1094;22363;-78
2021/08/07 02:47:54;;;;;;;12.38;10.90;;;;;;;11.69;76.83;99509.11;128306;1095;22443;-76
2021/08/07 02:50:25;;;;;;;11.88;10.08;;;;;;;11.65;76.92;99511.34;128422;1094;22356;-76
2021/08/07 02:52:57;;;;;;;13.98;9.90;;;;;;;11.65;77.11;99500.75;128219;1095;22330;-76
2021/08/07 02:55:27;;;;;;;;;;;;;;;11.64;77.05;99503.61;128610;1095;22348;-77
2021/08/07 02:58:04;;;;;;;12.50;9.18;;;;;;;11.59;77.20;99498.88;128572;1093;21263;-77
2021/08/07 03:00:38;;;;;;;11.90;8.55;;;;;;;11.59;77.30;99501.53;128188;1095;22799;-77
2021/08/07 03:03:08;;;;;;;13.45;9.33;;;;;;;11.61;77.08;99502.16;128216;1098;22498;-77
2021/08/07 03:05:39;;;;;;;11.18;9.38;;;;;;;11.61;77.25;99506.64;127953;1096;22378;-76
2021/08/07 03:08:09;;;;;;;9.25;8.18;;;;;;;11.60;77.02;99500.54;127931;1098;24523;-77
2021/08/07 03:10:42;;;;;;;11.18;8.68;;;;;;;11.61;77.22;99504.80;127919;1098;25013;-77
2021/08/07 03:13:14;;;;;;;11.63;8.55;;;;;;;11.61;77.54;99496.88;127908;1098;22438;-77
2021/08/07 03:15:45;;;;;;;9.50;8.58;;;;;;;11.63;77.04;99496.66;127912;1098;22367;-77
2021/08/07 03:18:17;;;;;;;9.03;8.15;;;;;;;11.60;76.80;99499.73;127981;1098;24164;-78
2021/08/07 03:20:46;;;;;;;13.40;8.58;;;;;;;11.57;76.97;99500.11;128183;1098;22356;-78
2021/08/07 03:23:16;;;;;;;11.03;8.28;;;;;;;11.52;76.96;99506.78;128256;1095;22352;-78
2021/08/07 03:25:53;;;;;;;11.88;9.30;;;;;;;11.50;77.04;99502.72;128301;1095;22344;-76
2021/08/07 03:28:23;;;;;;;10.95;8.10;;;;;;;11.52;77.39;99505.97;128554;1095;22359;-77
2021/08/07 03:30:53;;;;;;;8.88;7.98;;;;;;;11.53;77.33;99505.79;128585;1095;22343;-77
2021/08/07 03:33:24;;;;;;;12.38;8.45;;;;;;;11.55;77.35;99516.16;128310;1095;22344;-77
2021/08/07 03:35:54;;;;;;;10.43;8.45;;;;;;;11.58;77.19;99514.96;128339;1094;22343;-77
2021/08/07 03:38:27;;;;;;;10.53;8.75;;;;;;;11.60;77.23;99519.05;128617;1095;22340;-77
2021/08/07 03:40:57;;;;;;;10.10;8.63;;;;;;;11.62;77.45;99519.66;128602;1095;22371;-76
2021/08/07 03:43:27;;;;;;;14.68;10.53;;;;;;;11.64;77.29;99514.19;128294;1094;24227;-77
2021/08/07 03:45:56;;;;;;;15.25;8.88;;;;;;;11.66;77.46;99512.99;128323;1093;23907;-77
2021/08/07 03:48:28;;;;;;;18.50;9.93;;;;;;;11.68;77.47;99516.23;128629;1094;22362;-77
2021/08/07 03:50:57;;;;;;;11.08;9.03;;;;;;;11.68;77.54;99508.30;128598;1095;22340;-77
2021/08/07 03:53:42;;;;;;;12.53;8.77;;;;;;;11.67;77.40;99509.33;128342;1095;22450;-77
2021/08/07 03:56:12;;;;;;;9.70;8.70;;;;;;;11.69;77.68;99512.57;128631;1093;22358;-77
2021/08/07 03:58:42;;;;;;;12.05;9.13;;;;;;;11.77;77.83;99514.27;128292;1095;22359;-77
2021/08/07 04:01:15;;;;;;;10.13;7.55;;;;;;;11.85;77.95;99518.59;128609;1093;24489;-77
2021/08/07 04:03:45;;;;;;;11.80;8.93;;;;;;;11.90;77.62;99514.36;128659;1093;22362;-77
2021/08/07 04:06:33;;;;;;;13.13;9.30;;;;;;;11.93;77.42;99519.26;128607;1095;22363;-76
2021/08/07 04:09:03;;;;;;;13.58;10.20;;;;;;;11.96;77.71;99523.32;128594;1093;22343;-77
2021/08/07 04:11:33;;;;;;;11.55;9.50;;;;;;;12.01;77.49;99526.20;128565;1095;22489;-77
2021/08/07 04:14:06;;;;;;;11.05;9.58;;;;;;;12.04;77.43;99525.00;128560;1094;22352;-77
2021/08/07 04:16:36;;;;;;;10.00;9.00;;;;;;;12.05;77.42;99516.85;128274;1095;22798;-77
2021/08/07 04:19:12;;;;;;;11.53;10.00;;;;;;;12.09;77.58;99528.67;128227;1095;22344;-77
2021/08/07 04:21:43;;;;;;;12.13;9.95;;;;;;;12.17;77.51;99530.35;128312;1095;24495;-77
2021/08/07 04:24:14;;;;;;;9.63;8.63;;;;;;;12.28;77.64;99542.20;128273;1095;22341;-77
2021/08/07 04:26:44;;;;;;;11.55;9.15;;;;;;;12.34;77.37;99544.06;128254;1095;22366;-77
2021/08/07 04:29:15;;;;;;;13.63;10.30;;;;;;;12.38;77.27;99542.64;128269;1095;22367;-78
2021/08/07 04:31:46;;;;;;;13.75;9.73;;;;;;;12.44;77.42;99528.60;128261;1095;22371;-77
2021/08/07 04:34:16;;;;;;;13.83;9.53;;;;;;;12.55;77.31;99535.14;128572;1095;22345;-77
2021/08/07 04:36:45;;;;;;;11.73;10.48;;;;;;;12.63;77.03;99530.48;128298;1093;22320;-76
2021/08/07 04:39:17;;;;;;;13.98;10.18;;;;;;;12.68;76.65;99530.68;128348;1095;22347;-76
2021/08/07 04:41:47;;;;;;;10.28;9.38;;;;;;;12.74;76.69;99536.20;128345;1095;22361;-77
2021/08/07 04:44:17;;;;;;;10.58;9.48;;;;;;;12.79;76.61;99531.10;128198;1095;22346;-77
2021/08/07 04:46:47;;;;;;;11.83;9.38;;;;;;;12.89;76.38;99528.87;128582;1095;23286;-76
2021/08/07 04:49:17;;;;;;;11.10;9.55;;;;;;;13.01;76.34;99534.39;128642;1095;22369;-77
2021/08/07 04:51:48;;;;;;;12.05;9.78;;;;;;;13.12;76.17;99536.42;128312;1095;22406;-77
2021/08/07 04:54:17;;;;;;;11.10;10.10;;;;;;;13.24;76.21;99529.53;128285;1095;22376;-77
2021/08/07 04:56:47;;;;;;;10.35;9.30;;;;;;;13.38;76.09;99540.94;128289;1095;22344;-77
2021/08/07 04:59:17;;;;;;;12.50;9.45;;;;;;;13.50;75.73;99544.61;128265;1095;22379;-77
2021/08/07 05:01:47;;;;;;;12.98;9.70;;;;;;;13.63;75.89;99536.63;128264;1095;22348;-77
2021/08/07 05:04:17;;;;;;;10.05;9.03;;;;;;;13.77;75.34;99537.41;128244;1095;22345;-77
2021/08/07 05:06:48;;;;;;;13.43;9.05;;;;;;;13.91;75.22;99542.67;128592;1095;22360;-76
2021/08/07 05:09:18;;;;;;;12.83;8.55;;;;;;;14.07;75.47;99542.22;128576;1095;22333;-75
2021/08/07 05:12:07;;;;;;;10.08;9.08;;;;;;;14.28;75.25;99543.75;128273;1095;22634;-76
2021/08/07 05:14:40;;;;;;;9.00;8.10;;;;;;;14.50;75.13;99541.61;128298;1095;22989;-76
2021/08/07 05:17:10;;;;;;;11.65;9.08;;;;;;;14.75;75.05;99544.34;128329;1095;22422;-76
2021/08/07 05:19:41;;;;;;;16.70;10.70;;;;;;;14.99;74.39;99546.20;128339;1095;24508;-77
2021/08/07 05:22:12;;;;;;;12.05;9.75;;;;;;;15.26;74.33;99548.66;128322;1095;22369;-76
2021/08/07 05:24:45;;;;;;;11.03;8.90;;;;;;;15.57;73.69;99546.97;128275;1095;22347;-76
2021/08/07 05:27:16;;;;;;;9.63;7.85;;;;;;;15.85;73.41;99547.30;128612;1095;22688;-76
2021/08/07 05:29:46;;;;;;;9.55;8.38;;;;;;;16.13;72.50;99548.64;128284;1095;24508;-77
2021/08/07 05:32:16;;;;;;;11.08;8.30;;;;;;;16.47;72.38;99553.31;128303;1095;22381;-77
2021/08/07 05:34:46;;;;;;;10.60;8.28;;;;;;;16.80;71.73;99548.59;128349;1095;22379;-76
2021/08/07 05:37:16;;;;;;;11.80;8.30;;;;;;;17.14;70.81;99547.03;128286;1094;22360;-77
2021/08/07 05:39:46;;;;;;;9.43;8.30;;;;;;;17.46;70.16;99549.36;128508;1094;22376;-78
2021/08/07 05:42:17;;;;;;;9.30;8.18;;;;;;;17.86;69.44;99555.66;128519;1095;22459;-76
2021/08/07 05:44:47;;;;;;;12.95;7.78;;;;;;;18.24;68.50;99556.15;128267;1095;23836;-77
2021/08/07 05:47:16;;;;;;;9.83;7.03;;;;;;;18.45;67.06;99568.05;128237;1095;22376;-77
2021/08/07 05:49:47;;;;;;;9.03;7.43;;;;;;;18.70;66.46;99570.39;128537;1093;22344;-77
2021/08/07 05:52:17;;;;;;;9.67;7.13;;;;;;;19.05;66.02;99578.25;128357;1095;22358;-76
2021/08/07 05:54:47;;;;;;;9.05;8.15;;;;;;;19.36;65.33;99573.38;128610;1095;23242;-78
2021/08/07 05:57:18;;;;;;;16.17;7.33;;;;;;;19.68;64.58;99577.12;128247;1095;23222;-78
2021/08/07 05:59:47;;;;;;;10.58;6.80;;;;;;;20.01;63.82;99569.25;128597;1095;23333;-77
2021/08/07 06:02:18;;;;;;;7.40;6.70;;;;;;;20.35;64.07;99570.73;128277;1095;22343;-77
2021/08/07 06:04:50;;;;;;;7.93;6.50;;;;;;;20.78;63.77;99565.58;128587;1095;24470;-76
2021/08/07 06:07:21;;;;;;;8.05;7.25;;;;;;;21.07;62.34;99572.30;128603;1095;24564;-77
2021/08/07 06:09:52;;;;;;;6.95;6.35;;;;;;;21.37;62.59;99576.33;128637;1095;22359;-76
2021/08/07 06:12:21;;;;;;;6.95;6.35;;;;;;;21.71;62.04;99573.31;128601;1095;24509;-77
2021/08/07 06:14:51;;;;;;;5.98;5.38;;;;;;;22.01;61.24;99575.36;128198;1098;23449;-77
2021/08/07 06:17:21;;;;;;;5.73;5.13;;;;;;;22.33;60.71;99569.07;128173;1098;22366;-77
2021/08/07 06:19:52;;;;;;;6.03;5.37;;;;;;;22.59;59.97;99573.42;128209;1098;22350;-79
2021/08/07 06:22:22;;;;;;;6.10;5.50;;;;;;;22.85;58.68;99579.66;128244;1098;22448;-79
2021/08/07 06:24:52;;;;;;;5.58;4.15;;;;;;;23.00;58.33;99577.03;127981;1098;22473;-77
2021/08/07 06:27:22;;;;;;;5.20;4.55;;;;;;;23.25;57.90;99578.10;128143;1096;24236;-78
2021/08/07 06:29:52;;;;;;;6.80;4.48;;;;;;;23.45;57.28;99575.38;128354;1098;24244;-79
2021/08/07 06:32:22;;;;;;;4.63;4.13;;;;;;;23.60;56.77;99587.25;128297;1095;24479;-77
2021/08/07 06:34:52;;;;;;;7.20;3.97;;;;;;;23.82;56.63;99576.96;128258;1095;22335;-77
2021/08/07 06:37:23;;;;;;;6.15;4.35;;;;;;;24.10;55.70;99585.52;128336;1095;22347;-79
2021/08/07 06:39:52;;;;;;;5.47;3.70;;;;;;;24.30;54.96;99581.94;128511;1095;22362;-79
2021/08/07 06:42:22;;;;;;;3.93;3.53;;;;;;;24.35;53.32;99593.49;128492;1095;22412;-78
2021/08/07 06:45:18;;;;;;;3.88;3.43;;;;;;;24.32;53.63;99585.95;128082;1097;22389;-78
2021/08/07 06:47:48;;;;;;;5.90;3.88;;;;;;;24.44;53.44;99595.66;128202;1098;22358;-79
2021/08/07 06:50:20;;;;;;;4.20;3.05;;;;;;;24.51;52.68;99588.06;128160;1098;22357;-77
2021/08/07 06:52:50;;;;;;;3.83;3.50;;;;;;;24.57;52.69;99579.66;128029;1098;24240;-79
2021/08/07 06:55:20;;;;;;;4.73;3.80;;;;;;;24.73;52.46;99584.97;127919;1096;23346;-78
2021/08/07 06:57:50;;;;;;;4.00;3.43;;;;;;;24.84;52.27;99586.51;128202;1101;24492;-78
2021/08/07 07:00:22;;;;;;;3.53;3.15;;;;;;;24.98;51.46;99594.78;127928;1098;22378;-80
2021/08/07 07:02:52;;;;;;;5.40;3.23;;;;;;;25.09;51.09;99591.73;128023;1098;23216;-78
2021/08/07 07:05:23;;;;;;;6.57;3.47;;;;;;;25.17;50.55;99597.66;128108;1095;24593;-78
2021/08/07 07:07:53;;;;;;;3.78;3.35;;;;;;;25.18;50.44;99596.55;128390;1095;22363;-77
2021/08/07 07:10:23;;;;;;;3.53;3.23;;;;;;;25.35;50.15;99594.23;128333;1095;22353;-79
2021/08/07 07:12:53;;;;;;;3.30;3.00;;;;;;;25.40;49.51;99596.91;128645;1095;22388;-79
2021/08/07 07:15:24;;;;;;;3.30;2.90;;;;;;;25.55;49.54;99598.66;128375;1095;22346;-79
2021/08/07 07:17:54;;;;;;;4.33;3.10;;;;;;;25.68;49.06;99592.58;128323;1095;22366;-78
2021/08/07 07:20:24;;;;;;;4.73;3.48;;;;;;;25.88;48.96;99604.31;128326;1095;24160;-79
2021/08/07 07:22:55;;;;;;;6.30;3.50;;;;;;;26.01;48.22;99603.63;128369;1098;22362;-78
2021/08/07 07:25:26;;;;;;;4.40;3.10;;;;;;;26.18;48.22;99601.25;127973;1098;22381;-77
2021/08/07 07:27:55;;;;;;;3.20;2.78;;;;;;;26.34;47.37;99609.19;127998;1098;22457;-78
2021/08/07 07:30:25;;;;;;;5.40;2.60;;;;;;;26.55;47.12;99613.26;128171;1098;22379;-77
2021/08/07 07:32:55;;;;;;;15.73;3.70;;;;;;;26.63;46.39;99609.92;128244;1098;22361;-78
2021/08/07 07:35:26;;;;;;;4.35;3.20;;;;;;;26.84;46.40;99615.04;128214;1098;22867;-77
2021/08/07 07:37:56;;;;;;;3.17;2.40;;;;;;;27.04;45.98;99620.15;128440;1098;22357;-77
2021/08/07 07:40:26;;;;;;;2.95;2.55;;;;;;;27.25;45.09;99615.23;128203;1095;23307;-76
2021/08/07 07:42:56;;;;;;;2.77;2.37;;;;;;;27.31;44.79;99619.47;128829;1095;22370;-77
2021/08/07 07:45:26;;;;;;;4.98;2.18;;;;;;;27.43;44.66;99619.02;128274;1095;22352;-77
2021/08/07 07:48:00;;;;;;;5.50;2.65;;;;;;;27.58;44.29;99615.22;128324;1095;22792;-76
2021/08/07 07:50:32;;;;;;;3.75;2.40;;;;;;;27.73;43.79;99623.10;128264;1095;22400;-77
2021/08/07 07:53:03;;;;;;;2.10;1.75;;;;;;;27.90;43.03;99617.12;128560;1095;22344;-77
2021/08/07 07:55:34;;;;;;;;;;;;;;;27.98;42.64;99621.83;128340;1095;22347;-77
2021/08/07 07:58:04;;;;;;;3.13;2.10;;;;;;;28.15;42.88;99632.89;128269;1095;21257;-77
2021/08/07 08:00:35;;;;;;;2.78;1.80;;;;;;;28.26;42.01;99619.94;128245;1095;22388;-77
2021/08/07 08:03:07;;;;;;;2.28;1.68;;;;;;;28.35;41.72;99628.16;128313;1095;22636;-77
2021/08/07 08:05:41;;;;;;;2.98;1.70;;;;;;;28.38;40.40;99619.41;128300;1093;22343;-76
2021/08/07 08:08:11;;;;;;;4.13;2.57;;;;;;;28.37;40.30;99618.60;128241;1095;22343;-77
2021/08/07 08:10:42;;;;;;;2.58;1.45;;;;;;;28.31;40.60;99616.30;128254;1093;24495;-76
2021/08/07 08:13:15;;;;;;;18.60;3.48;;;;;;;28.39;40.69;99629.21;128281;1095;22335;-76
2021/08/07 08:15:44;;;;;;;4.95;1.98;;;;;;;28.44;40.08;99623.66;128599;1095;24519;-77
2021/08/07 08:18:14;;;;;;;3.23;1.97;;;;;;;28.46;40.08;99621.45;128617;1093;22367;-77
2021/08/07 08:20:45;;;;;;;3.83;2.00;;;;;;;28.49;40.18;99620.02;128364;1095;22379;-77
2021/08/07 08:23:16;;;;;;;3.18;1.73;;;;;;;28.57;40.18;99619.31;128261;1095;23422;-78
2021/08/07 08:25:45;;;;;;;10.60;2.23;;;;;;;28.59;39.63;99623.34;128290;1095;23252;-77
2021/08/07 08:28:16;;;;;;;2.77;1.80;;;;;;;28.69;40.01;99619.59;128450;1095;22363;-78
2021/08/07 08:30:46;;;;;;;;;;;;;;;28.71;39.14;99628.23;128325;1094;24235;-77
2021/08/07 08:33:16;;;;;;;2.50;1.60;;;;;;;28.82;40.14;99624.19;128291;1095;21253;-77
2021/08/07 08:35:46;;;;;;;4.43;1.80;;;;;;;28.99;39.21;99628.13;128373;1093;24485;-77
2021/08/07 08:38:16;;;;;;;5.60;2.03;;;;;;;28.98;38.73;99629.25;128275;1095;22370;-77
2021/08/07 08:40:47;;;;;;;3.40;1.63;;;;;;;29.12;38.50;99637.38;128284;1095;24519;-77
2021/08/07 08:43:17;;;;;;;2.88;1.25;;;;;;;29.17;38.47;99634.56;128212;1095;22347;-76
2021/08/07 08:45:48;;;;;;;2.75;1.30;;;;;;;29.28;37.87;99641.34;128348;1095;24991;-78
2021/08/07 08:48:18;;;;;;;2.15;1.40;;;;;;;29.27;37.99;99637.03;128268;1095;22345;-78
2021/08/07 08:50:49;;;;;;;;;;;;;;;29.25;37.61;99639.24;128328;1095;22458;-78
2021/08/07 08:53:19;;;;;;;3.20;1.27;;;;;;;29.21;38.02;99643.70;128240;1095;21265;-78
2021/08/07 08:55:49;;;;;;;3.53;1.75;;;;;;;29.27;37.62;99645.98;128243;1095;25164;-77
2021/08/07 08:58:19;;;;;;;4.98;1.30;;;;;;;29.40;37.70;99649.76;128238;1095;22667;-78
2021/08/07 09:00:49;;;;;;;3.10;1.40;;;;;;;29.43;36.97;99648.34;128285;1095;22359;-77
2021/08/07 09:03:20;;;;;;;3.80;1.53;;;;;;;29.33;37.16;99651.31;128258;1095;22651;-77
2021/08/07 09:05:51;;;;;;;1.63;1.33;;;;;;;29.14;37.04;99652.29;128302;1093;22791;-77
2021/08/07 09:08:21;;;;;;;2.03;1.00;;;;;;;29.11;37.43;99650.18;128299;1095;24246;-77
2021/08/07 09:11:15;;;;;;;4.70;1.20;;;;;;;28.97;37.33;99652.92;128539;1095;23276;-77
2021/08/07 09:13:47;;;;;;;3.03;1.18;;;;;;;28.75;37.78;99647.44;128302;1094;22630;-78
2021/08/07 09:16:17;;;;;;;2.23;1.35;;;;;;;28.58;37.71;99651.59;128300;1095;24307;-77
2021/08/07 09:18:55;;;;;;;1.93;1.07;;;;;;;28.28;38.00;99649.49;128370;1095;24489;-77
2021/08/07 09:21:25;;;;;;;2.78;1.25;;;;;;;28.17;38.81;99645.38;128310;1095;22345;-76
2021/08/07 09:24:07;;;;;;;3.28;1.60;;;;;;;28.22;38.57;99645.27;128629;1093;22443;-76
2021/08/07 09:26:43;;;;;;;5.33;1.78;;;;;;;28.40;39.34;99652.55;128551;1095;22359;-77
2021/08/07 09:29:14;;;;;;;4.55;1.28;;;;;;;28.56;38.46;99647.60;128289;1095;22359;-77
2021/08/07 09:32:01;;;;;;;2.00;1.15;;;;;;;28.69;38.31;99648.66;128375;1095;22359;-77
2021/08/07 09:34:32;;;;;;;3.93;1.20;;;;;;;28.70;38.12;99642.94;128302;1094;22362;-76
2021/08/07 09:37:04;;;;;;;3.35;1.70;;;;;;;28.72;38.05;99645.33;128351;1095;22340;-77
2021/08/07 09:39:41;;;;;;;3.28;1.60;;;;;;;28.65;37.79;99642.23;128337;1095;22348;-77
2021/08/07 09:42:21;;;;;;;2.23;1.08;;;;;;;28.36;37.69;99646.88;128328;1095;22404;-77
2021/08/07 09:45:25;;;;;;;4.00;1.10;;;;;;;27.96;38.24;99637.63;128584;1095;22348;-78
2021/08/07 09:48:34;;;;;;;3.05;1.30;;;;;;;27.50;39.11;99630.28;128210;1095;24978;-78
2021/08/07 09:51:22;;;;;;;2.57;1.20;;;;;;;27.37;40.00;99625.63;128184;1098;22363;-78
2021/08/07 09:54:18;;;;;;;1.68;0.95;;;;;;;27.30;39.92;99630.63;128174;1098;22350;-77
2021/08/07 09:57:23;;;;;;;2.03;0.90;;;;;;;27.44;40.00;99628.76;128002;1097;22348;-76
2021/08/07 09:59:53;;;;;;;3.88;1.33;;;;;;;27.66;39.66;99625.41;127887;1100;24258;-77
2021/08/07 10:02:36;;;;;;;1.95;1.15;;;;;;;27.82;39.46;99629.45;127527;1101;22384;-77
2021/08/07 10:05:11;;;;;;;1.80;1.28;;;;;;;28.10;38.69;99634.92;127559;1101;22369;-77
2021/08/07 10:08:02;;;;;;;2.28;1.28;;;;;;;28.02;38.01;99635.61;127478;1101;22361;-77
2021/08/07 10:10:44;;;;;;;2.08;1.10;;;;;;;28.02;38.42;99636.41;127616;1101;24282;-77
2021/08/07 10:13:19;;;;;;;2.38;1.10;;;;;;;27.89;38.09;99632.60;127561;1101;22369;-77
2021/08/07 10:15:58;;;;;;;3.23;1.38;;;;;;;27.65;38.65;99629.20;127516;1101;22407;-78
2021/08/07 10:18:28;;;;;;;2.13;1.18;;;;;;;27.38;38.73;99629.94;127569;1100;22386;-77
2021/08/07 10:21:03;;;;;;;2.37;0.90;;;;;;;27.08;38.84;99640.14;127879;1101;24332;-78
2021/08/07 10:23:35;;;;;;;5.53;1.50;;;;;;;26.89;39.27;99625.79;127414;1105;22386;-76
2021/08/07 10:26:10;;;;;;;3.68;1.20;;;;;;;26.94;39.94;99629.23;127458;1104;22401;-77
2021/08/07 10:28:53;;;;;;;2.95;1.20;;;;;;;27.24;39.55;99629.10;127517;1101;22411;-77
2021/08/07 10:31:26;;;;;;;11.03;1.40;;;;;;;27.59;39.06;99631.22;127886;1101;22388;-77
2021/08/07 10:34:04;;;;;;;2.13;1.03;;;;;;;27.81;38.44;99637.91;127865;1100;22417;-77
2021/08/07 10:36:37;;;;;;;2.95;1.28;;;;;;;28.16;38.10;99636.44;127903;1098;22826;-76
2021/08/07 10:39:08;;;;;;;3.35;1.25;;;;;;;28.20;37.48;99644.78;128194;1098;22354;-77
2021/08/07 10:41:38;;;;;;;3.18;1.10;;;;;;;28.05;37.45;99637.72;128275;1095;22791;-77
2021/08/07 10:44:10;;;;;;;2.70;1.53;;;;;;;27.91;37.36;99638.52;128243;1095;22343;-77
2021/08/07 10:46:42;;;;;;;2.78;1.35;;;;;;;27.69;38.18;99636.46;128288;1095;24237;-77
2021/08/07 10:49:12;;;;;;;1.70;1.10;;;;;;;27.47;38.05;99635.50;128350;1095;24573;-78
2021/08/07 10:51:43;;;;;;;2.43;1.20;;;;;;;27.28;38.14;99635.53;128654;1095;22344;-77
2021/08/07 10:54:33;;;;;;;2.25;1.40;;;;;;;26.95;38.45;99641.69;128264;1095;22372;-81
2021/08/07 10:57:04;;;;;;;2.40;1.20;;;;;;;26.59;38.76;99644.11;128446;1093;22442;-77
2021/08/07 10:59:40;;;;;;;2.63;1.30;;;;;;;26.37;39.74;99639.20;128357;1095;25156;-77
2021/08/07 11:02:20;;;;;;;4.98;1.00;;;;;;;26.28;40.01;99641.73;128588;1095;22348;-76
2021/08/07 11:04:52;;;;;;;2.40;1.48;;;;;;;26.24;40.19;99629.07;128256;1098;22357;-77
2021/08/07 11:07:22;;;;;;;1.45;0.85;;;;;;;26.21;40.55;99627.74;128217;1098;22803;-77
2021/08/07 11:10:11;;;;;;;2.00;1.15;;;;;;;26.18;40.17;99631.02;128206;1098;24501;-77
2021/08/07 11:12:45;;;;;;;3.58;1.48;;;;;;;26.10;40.68;99628.16;128189;1096;22349;-77
2021/08/07 11:15:32;;;;;;;2.75;1.15;;;;;;;26.08;40.84;99636.55;128236;1096;22364;-77
2021/08/07 11:18:25;;;;;;;2.63;1.20;;;;;;;26.04;40.79;99633.62;127984;1098;22360;-78
2021/08/07 11:20:54;;;;;;;2.13;1.28;;;;;;;26.05;40.98;99629.01;128208;1098;22356;-78
2021/08/07 11:23:37;;;;;;;3.95;1.10;;;;;;;26.14;41.09;99634.61;128406;1095;22367;-78
2021/08/07 11:26:07;;;;;;;1.88;1.05;;;;;;;26.24;40.93;99632.58;128663;1093;22359;-77
2021/08/07 11:29:07;;;;;;;2.95;1.00;;;;;;;26.29;40.66;99623.58;128280;1095;22349;-77
2021/08/07 11:31:37;;;;;;;3.80;1.35;;;;;;;26.27;40.46;99620.38;128307;1095;22906;-77
2021/08/07 11:34:22;;;;;;;1.85;1.38;;;;;;;26.17;40.07;99625.91;128587;1095;22356;-77
2021/08/07 11:37:24;;;;;;;2.85;1.70;;;;;;;26.19;40.41;99623.70;128566;1095;22860;-77
2021/08/07 11:40:11;;;;;;;3.18;1.58;;;;;;;26.19;39.53;99626.41;127970;1098;22359;-78
2021/08/07 11:42:44;;;;;;;4.85;1.33;;;;;;;26.18;40.21;99619.39;127927;1098;22362;-77
2021/08/07 11:45:20;;;;;;;2.25;1.00;;;;;;;26.17;39.85;99624.01;128214;1098;22382;-78
2021/08/07 11:47:53;;;;;;;2.53;1.20;;;;;;;26.18;39.87;99613.98;127997;1098;22378;-78
2021/08/07 11:50:23;;;;;;;3.23;1.18;;;;;;;26.15;39.77;99611.84;128001;1098;22811;-77
2021/08/07 11:52:53;;;;;;;2.73;1.17;;;;;;;26.18;40.15;99619.39;127924;1098;22375;-77